Time;durP1;ratioP1;P1;durP2;ratioP2;P2;SDS_P1;SDS_P2;PMS_P1;PMS_P2;Temp;Humidity;BMP_temperature;BMP_pressure;BME280_temperature;BME280_humidity;BME280_pressure;Samples;Min_cycle;Max_cycle;Signal;HPM_P1;HPM_P2
2022/01/19 00:01:29;;;;;;;15.37;6.63;;;6.10;99.90;;;;;;5080834;28;20841;-71
2022/01/19 00:03:56;;;;;;;10.50;5.77;;;6.00;99.90;;;;;;5078250;28;20470;-71
2022/01/19 00:06:23;;;;;;;12.60;6.10;;;6.00;99.90;;;;;;5076289;28;20462;-70
2022/01/19 00:08:52;;;;;;;14.33;6.70;;;6.00;99.90;;;;;;5075476;28;20907;-71
2022/01/19 00:11:20;;;;;;;12.20;6.43;;;5.90;99.90;;;;;;5077234;28;20460;-71
2022/01/19 00:13:50;;;;;;;12.03;6.07;;;5.90;99.90;;;;;;5077228;28;20497;-71
2022/01/19 00:16:17;;;;;;;14.13;6.60;;;5.90;99.90;;;;;;5077043;28;20442;-71
2022/01/19 00:18:45;;;;;;;9.50;6.30;;;5.90;99.90;;;;;;5077145;28;20465;-71
2022/01/19 00:21:12;;;;;;;13.83;7.10;;;5.90;99.90;;;;;;5076920;28;20521;-71
2022/01/19 00:23:39;;;;;;;12.43;6.40;;;5.90;99.90;;;;;;5077117;28;20459;-71
2022/01/19 00:26:06;;;;;;;12.80;6.47;;;5.90;99.90;;;;;;5077108;28;20554;-70
2022/01/19 00:28:34;;;;;;;16.50;6.70;;;5.90;99.90;;;;;;5079960;28;20485;-70
2022/01/19 00:31:00;;;;;;;14.03;6.93;;;5.90;99.90;;;;;;5081254;28;20453;-70
2022/01/19 00:33:28;;;;;;;12.77;6.23;;;5.90;99.90;;;;;;5080334;28;20478;-70
2022/01/19 00:35:56;;;;;;;12.73;6.43;;;5.90;99.90;;;;;;5080956;28;20926;-70
2022/01/19 00:38:22;;;;;;;16.17;5.80;;;5.90;99.90;;;;;;5081000;28;20794;-71
2022/01/19 00:40:50;;;;;;;15.43;6.43;;;5.80;99.90;;;;;;5081198;28;20457;-70
2022/01/19 00:43:17;;;;;;;12.83;7.00;;;5.80;99.90;;;;;;5081600;28;20458;-70
2022/01/19 00:45:46;;;;;;;10.40;6.40;;;5.80;99.90;;;;;;5081646;28;20516;-70
2022/01/19 00:48:13;;;;;;;9.10;5.47;;;5.80;99.90;;;;;;5080402;28;20482;-70
2022/01/19 00:50:43;;;;;;;10.60;6.20;;;5.80;99.90;;;;;;5080618;28;20465;-70
2022/01/19 00:53:10;;;;;;;13.93;6.60;;;5.80;99.90;;;;;;5080060;28;20953;-70
2022/01/19 00:55:37;;;;;;;15.10;7.80;;;5.70;99.90;;;;;;5080315;28;20561;-70
2022/01/19 00:58:04;;;;;;;13.30;6.70;;;5.70;99.90;;;;;;5081831;28;20455;-70
2022/01/19 01:00:31;;;;;;;13.10;6.33;;;5.70;99.90;;;;;;5082716;28;20469;-70
2022/01/19 01:03:00;;;;;;;12.40;6.80;;;5.70;99.90;;;;;;5080891;28;20454;-70
2022/01/19 01:05:27;;;;;;;16.37;6.80;;;5.70;99.90;;;;;;5081304;28;20462;-70
2022/01/19 01:07:53;;;;;;;11.30;6.43;;;5.70;99.90;;;;;;5082806;28;20511;-70
2022/01/19 01:10:21;;;;;;;13.70;6.40;;;5.70;99.90;;;;;;5082495;28;20462;-69
2022/01/19 01:13:20;;;;;;;15.00;6.97;;;5.70;99.90;;;;;;5081252;28;20981;-69
2022/01/19 01:16:00;;;;;;;13.80;6.80;;;5.70;99.90;;;;;;5080657;28;20446;-70
2022/01/19 01:18:29;;;;;;;13.37;6.90;;;5.70;99.90;;;;;;5081649;28;20481;-70
2022/01/19 01:20:59;;;;;;;20.13;7.87;;;5.70;99.90;;;;;;5080586;28;20457;-71
2022/01/19 01:23:27;;;;;;;13.93;7.13;;;5.80;99.90;;;;;;5081048;28;20863;-70
2022/01/19 01:25:55;;;;;;;12.70;6.77;;;5.80;99.90;;;;;;5081200;28;20454;-70
2022/01/19 01:28:24;;;;;;;17.17;7.20;;;5.80;99.90;;;;;;5080023;28;20464;-71
2022/01/19 01:30:51;;;;;;;18.43;8.00;;;5.80;99.90;;;;;;5080851;28;20454;-70
2022/01/19 01:33:18;;;;;;;14.73;7.17;;;5.70;99.90;;;;;;5080905;28;20478;-70
2022/01/19 01:35:47;;;;;;;13.17;6.90;;;5.70;99.90;;;;;;5081282;28;20458;-71
2022/01/19 01:38:15;;;;;;;14.83;8.70;;;5.80;99.90;;;;;;5080594;28;20450;-70
2022/01/19 01:40:42;;;;;;;16.10;8.60;;;5.80;99.90;;;;;;5081720;28;20482;-70
2022/01/19 01:43:10;;;;;;;19.30;9.90;;;5.80;99.90;;;;;;5081414;28;20450;-70
2022/01/19 01:45:41;;;;;;;15.27;9.13;;;5.80;99.90;;;;;;5080966;28;20976;-70
2022/01/19 01:48:12;;;;;;;21.70;10.23;;;5.80;99.90;;;;;;5080756;28;20539;-70
2022/01/19 01:53:29;;;;;;;21.33;9.17;;;5.90;99.90;;;;;;5080201;28;20469;-70
2022/01/19 01:56:01;;;;;;;23.23;11.77;;;5.80;99.90;;;;;;5079020;28;20467;-72
2022/01/19 01:58:30;;;;;;;23.80;10.73;;;5.80;99.90;;;;;;5078646;28;20458;-71
2022/01/19 02:00:57;;;;;;;30.70;11.60;;;5.80;99.90;;;;;;5079356;28;20458;-70
2022/01/19 02:03:25;;;;;;;27.23;12.80;;;5.80;99.90;;;;;;5078930;28;20450;-70
2022/01/19 02:08:44;;;;;;;20.70;10.37;;;5.80;99.90;;;;;;5077703;28;20446;-70
2022/01/19 02:16:48;;;;;;;23.97;12.17;;;5.70;99.90;;;;;;5078621;28;20476;-70
2022/01/19 02:22:02;;;;;;;25.60;12.20;;;5.80;99.90;;;;;;5077626;28;20511;-71
2022/01/19 02:24:33;;;;;;;26.07;12.37;;;5.70;99.90;;;;;;5077212;28;20451;-70
2022/01/19 02:27:08;;;;;;;23.20;12.37;;;5.70;99.90;;;;;;5077010;28;20438;-70
2022/01/19 02:30:16;;;;;;;25.73;13.17;;;5.70;99.90;;;;;;5077283;28;20438;-70
2022/01/19 02:40:57;;;;;;;23.43;11.23;;;5.80;99.90;;;;;;5054273;28;20450;-70
2022/01/19 02:43:27;;;;;;;26.80;12.20;;;5.80;99.90;;;;;;5076525;28;20926;-70
2022/01/19 02:51:25;;;;;;;21.67;11.00;;;5.80;99.90;;;;;;5076095;28;20572;-71
2022/01/19 02:53:53;;;;;;;19.63;10.03;;;5.90;99.90;;;;;;5076065;28;20489;-70
2022/01/19 02:56:25;;;;;;;18.40;11.70;;;5.90;99.90;;;;;;5076028;28;20454;-69
2022/01/19 02:58:59;;;;;;;23.87;10.30;;;5.90;99.90;;;;;;5076364;28;20503;-71
2022/01/19 03:09:42;;;;;;;20.80;9.13;;;5.90;99.90;;;;;;5075793;28;20426;-69
2022/01/19 03:12:16;;;;;;;17.10;10.13;;;5.90;99.90;;;;;;5076028;28;20439;-69
2022/01/19 03:14:43;;;;;;;17.13;10.10;;;6.00;99.90;;;;;;5075541;28;20466;-70
2022/01/19 03:17:12;;;;;;;15.43;9.87;;;5.90;99.90;;;;;;5075851;28;20825;-70
2022/01/19 03:19:38;;;;;;;14.67;9.77;;;5.90;99.90;;;;;;5075583;28;20799;-70
2022/01/19 03:22:05;;;;;;;26.27;11.23;;;5.90;99.90;;;;;;5075769;28;20469;-70
2022/01/19 03:24:39;;;;;;;15.30;8.97;;;5.90;99.90;;;;;;5075186;28;20457;-71
2022/01/19 03:27:07;;;;;;;22.07;9.13;;;5.90;99.90;;;;;;5075702;28;20867;-72
2022/01/19 03:29:34;;;;;;;22.20;10.20;;;6.00;99.90;;;;;;5075393;28;20480;-69
2022/01/19 03:32:05;;;;;;;18.57;9.43;;;5.90;99.90;;;;;;5075582;28;20817;-70
2022/01/19 03:34:31;;;;;;;15.60;10.10;;;5.90;99.90;;;;;;5075685;28;20838;-71
2022/01/19 03:36:58;;;;;;;18.57;9.23;;;6.00;99.90;;;;;;5075177;28;20925;-71
2022/01/19 03:39:25;;;;;;;18.60;9.13;;;6.00;99.90;;;;;;5076381;28;20480;-71
2022/01/19 03:41:52;;;;;;;18.43;10.57;;;6.00;99.90;;;;;;5075200;28;20469;-71
2022/01/19 03:44:20;;;;;;;17.93;9.50;;;6.00;99.90;;;;;;5075227;28;20918;-71
2022/01/19 03:46:55;;;;;;;22.40;10.07;;;6.00;99.90;;;;;;5074956;28;20466;-70
2022/01/19 03:49:24;;;;;;;25.33;11.47;;;5.90;99.90;;;;;;5075192;28;20485;-70
2022/01/19 03:51:58;;;;;;;21.40;11.70;;;5.90;99.90;;;;;;5075034;28;20557;-71
2022/01/19 03:54:25;;;;;;;18.77;11.67;;;5.90;99.90;;;;;;5075641;28;20502;-70
2022/01/19 03:56:52;;;;;;;21.83;12.70;;;5.80;99.90;;;;;;5075712;28;20469;-70
2022/01/19 03:59:22;;;;;;;20.00;11.50;;;5.90;99.90;;;;;;5075571;28;20457;-71
2022/01/19 04:01:51;;;;;;;13.97;10.43;;;5.90;99.90;;;;;;5074730;28;20552;-70
2022/01/19 04:04:37;;;;;;;22.53;10.63;;;5.90;99.90;;;;;;5075142;28;20446;-70
2022/01/19 04:07:09;;;;;;;17.03;9.17;;;5.80;99.90;;;;;;5075275;28;20439;-71
2022/01/19 04:09:37;;;;;;;17.93;10.27;;;5.80;99.90;;;;;;5075425;28;20852;-70
2022/01/19 04:12:05;;;;;;;24.50;10.23;;;5.80;99.90;;;;;;5075680;28;20471;-71
2022/01/19 04:14:33;;;;;;;20.97;10.57;;;5.80;99.90;;;;;;5076332;28;20482;-70
2022/01/19 04:17:02;;;;;;;24.03;11.77;;;5.80;99.90;;;;;;5076482;28;20462;-70
2022/01/19 04:19:32;;;;;;;23.43;11.37;;;5.80;99.90;;;;;;5075123;28;20923;-70
2022/01/19 04:22:01;;;;;;;16.73;11.30;;;5.80;99.90;;;;;;5075048;28;20469;-70
2022/01/19 04:24:28;;;;;;;15.60;11.00;;;5.80;99.90;;;;;;5074785;28;20465;-70
2022/01/19 04:27:11;;;;;;;23.50;11.37;;;5.80;99.90;;;;;;5074742;28;20566;-71
2022/01/19 04:29:39;;;;;;;19.80;12.23;;;5.70;99.90;;;;;;5074819;28;20438;-71
2022/01/19 04:32:11;;;;;;;23.53;10.83;;;5.70;99.90;;;;;;5074748;28;20481;-70
2022/01/19 04:34:39;;;;;;;15.50;10.87;;;5.70;99.90;;;;;;5074451;28;20502;-71
2022/01/19 04:48:38;;;;;;;19.20;11.80;;;5.60;99.90;;;;;;5075675;28;20473;-70
2022/01/19 05:03:02;;;;;;;16.63;11.87;;;5.50;99.90;;;;;;5064474;28;20453;-71
2022/01/19 05:05:32;;;;;;;21.60;12.63;;;5.50;99.90;;;;;;5074234;28;20453;-71
2022/01/19 05:08:09;;;;;;;24.97;13.20;;;5.50;99.90;;;;;;5074405;28;20442;-71
2022/01/19 05:13:35;;;;;;;22.53;13.00;;;5.50;99.90;;;;;;5075906;28;20469;-69
2022/01/19 05:16:01;;;;;;;26.20;13.27;;;5.50;99.90;;;;;;5077888;28;20536;-69
2022/01/19 05:18:29;;;;;;;33.10;15.43;;;5.50;99.90;;;;;;5078243;28;20531;-69
2022/01/19 05:20:56;;;;;;;29.90;13.93;;;5.50;99.90;;;;;;5077767;28;20575;-71
2022/01/19 05:23:23;;;;;;;21.40;13.80;;;5.50;99.90;;;;;;5077665;28;20466;-71
2022/01/19 05:25:50;;;;;;;22.73;13.57;;;5.50;99.90;;;;;;5077736;28;20829;-70
2022/01/19 05:28:22;;;;;;;20.57;13.13;;;5.50;99.90;;;;;;5077503;28;20469;-69
2022/01/19 05:30:48;;;;;;;25.67;14.80;;;5.50;99.90;;;;;;5078212;28;20458;-70
2022/01/19 05:33:15;;;;;;;19.83;13.83;;;5.50;99.90;;;;;;5077570;28;20462;-70
2022/01/19 05:35:43;;;;;;;19.90;12.60;;;5.50;99.90;;;;;;5077866;28;20464;-70
2022/01/19 05:38:10;;;;;;;28.40;13.73;;;5.50;99.90;;;;;;5077597;28;20519;-70
2022/01/19 05:40:37;;;;;;;25.20;13.23;;;5.60;99.90;;;;;;5077547;28;20469;-70
2022/01/19 05:43:03;;;;;;;24.63;13.30;;;5.60;99.90;;;;;;5077800;28;20466;-70
2022/01/19 05:45:31;;;;;;;21.60;14.57;;;5.50;99.90;;;;;;5077235;28;20458;-71
2022/01/19 05:47:58;;;;;;;23.90;16.10;;;5.50;99.90;;;;;;5077214;28;20591;-70
2022/01/19 05:50:25;;;;;;;28.30;16.63;;;5.50;99.90;;;;;;5077580;28;20459;-69
2022/01/19 05:52:53;;;;;;;28.00;16.00;;;5.50;99.90;;;;;;5077476;28;20843;-70
2022/01/19 05:55:20;;;;;;;30.43;14.87;;;5.60;99.90;;;;;;5077084;28;20514;-69
2022/01/19 05:57:47;;;;;;;24.73;14.90;;;5.50;99.90;;;;;;5077193;28;20462;-70
2022/01/19 06:00:14;;;;;;;26.13;14.30;;;5.50;99.90;;;;;;5076924;28;20549;-71
2022/01/19 06:02:41;;;;;;;22.50;14.50;;;5.50;99.90;;;;;;5077090;28;20454;-70
2022/01/19 06:05:08;;;;;;;25.43;15.83;;;5.50;99.90;;;;;;5076993;28;20466;-70
2022/01/19 06:07:42;;;;;;;28.30;17.00;;;5.50;99.90;;;;;;5076841;28;20458;-70
2022/01/19 06:10:42;;;;;;;25.90;16.10;;;5.50;99.90;;;;;;5076702;28;20851;-70
2022/01/19 06:13:00;;;;;;;29.90;16.80;;;5.50;99.90;;;;;;5076551;28;20541;-70
2022/01/19 06:15:26;;;;;;;28.00;17.00;;;5.50;99.90;;;;;;5077041;28;20611;-70
2022/01/19 06:17:53;;;;;;;20.47;14.20;;;5.50;99.90;;;;;;5076790;28;20458;-71
2022/01/19 06:20:20;;;;;;;26.37;14.27;;;5.50;99.90;;;;;;5076944;28;20465;-70
2022/01/19 06:22:46;;;;;;;25.07;13.60;;;5.50;99.90;;;;;;5077531;28;20470;-71
2022/01/19 06:25:15;;;;;;;18.63;13.13;;;5.50;99.90;;;;;;5077169;28;20813;-70
2022/01/19 06:27:45;;;;;;;19.27;13.53;;;5.50;99.90;;;;;;5078025;28;20455;-73
2022/01/19 06:30:13;;;;;;;25.20;13.63;;;5.50;99.90;;;;;;5078291;28;20457;-71
2022/01/19 06:32:40;;;;;;;21.70;12.73;;;5.50;99.90;;;;;;5077956;28;20469;-71
2022/01/19 06:35:08;;;;;;;20.70;12.40;;;5.40;99.90;;;;;;5076740;28;20533;-70
2022/01/19 06:37:35;;;;;;;26.97;13.47;;;5.40;99.90;;;;;;5076948;28;20485;-70
2022/01/19 06:40:05;;;;;;;25.27;13.87;;;5.40;99.90;;;;;;5076903;28;20457;-71
2022/01/19 06:42:33;;;;;;;18.50;13.77;;;5.30;99.90;;;;;;5076847;28;20784;-71
2022/01/19 06:45:02;;;;;;;29.83;14.37;;;5.30;99.90;;;;;;5076576;28;20459;-70
2022/01/19 06:47:28;;;;;;;26.83;15.23;;;5.20;99.90;;;;;;5076308;28;20490;-70
2022/01/19 06:49:55;;;;;;;28.60;14.03;;;5.20;99.90;;;;;;5076553;28;20458;-71
2022/01/19 06:52:22;;;;;;;21.70;14.57;;;5.20;99.90;;;;;;5076823;28;20823;-71
2022/01/19 06:54:49;;;;;;;24.03;13.47;;;5.20;99.90;;;;;;5076481;28;20486;-71
2022/01/19 06:57:18;;;;;;;25.77;15.50;;;5.20;99.90;;;;;;5076820;28;20454;-71
2022/01/19 06:59:48;;;;;;;24.23;14.37;;;5.20;99.90;;;;;;5076618;28;20481;-71
2022/01/19 07:02:15;;;;;;;25.60;15.13;;;5.20;99.90;;;;;;5076793;28;20921;-70
2022/01/19 07:04:47;;;;;;;24.80;14.60;;;5.10;99.90;;;;;;5076837;28;20455;-70
2022/01/19 07:07:15;;;;;;;25.60;13.80;;;5.20;99.90;;;;;;5076447;28;20453;-70
2022/01/19 07:09:41;;;;;;;25.40;15.27;;;5.20;99.90;;;;;;5076962;28;20485;-70
2022/01/19 07:12:10;;;;;;;27.47;15.00;;;5.10;99.90;;;;;;5077116;28;20579;-71
2022/01/19 07:14:37;;;;;;;24.37;15.17;;;5.10;99.90;;;;;;5079358;28;20506;-70
2022/01/19 07:17:06;;;;;;;21.47;13.67;;;5.10;99.90;;;;;;5079829;28;20488;-70
2022/01/19 07:19:33;;;;;;;28.73;13.20;;;5.10;99.90;;;;;;5082289;28;20465;-71
2022/01/19 07:22:03;;;;;;;27.10;14.87;;;5.10;99.90;;;;;;5080091;28;20458;-70
2022/01/19 07:24:30;;;;;;;21.17;12.60;;;5.10;99.90;;;;;;5079283;28;20450;-70
2022/01/19 07:27:00;;;;;;;18.23;11.90;;;5.20;99.90;;;;;;5077789;28;21004;-70
2022/01/19 07:29:27;;;;;;;24.43;11.57;;;5.20;99.90;;;;;;5076459;28;20508;-72
2022/01/19 07:31:58;;;;;;;19.40;10.43;;;5.20;99.90;;;;;;5077698;28;20454;-71
2022/01/19 07:34:26;;;;;;;17.53;9.80;;;5.20;99.90;;;;;;5076919;28;20474;-71
2022/01/19 07:36:54;;;;;;;21.17;10.63;;;5.20;99.90;;;;;;5076504;28;20450;-71
2022/01/19 07:39:23;;;;;;;13.80;9.60;;;5.10;99.90;;;;;;5078789;28;20493;-70
2022/01/19 07:41:53;;;;;;;19.90;9.07;;;5.10;99.90;;;;;;5077107;28;20465;-71
2022/01/19 07:44:22;;;;;;;13.33;8.77;;;5.10;99.90;;;;;;5075915;28;20480;-71
2022/01/19 07:46:51;;;;;;;20.13;9.60;;;5.10;99.90;;;;;;5076179;28;20783;-70
2022/01/19 07:49:18;;;;;;;20.70;9.10;;;5.10;99.90;;;;;;5075504;28;20498;-70
2022/01/19 07:51:46;;;;;;;19.93;8.90;;;5.10;99.90;;;;;;5076705;28;20465;-70
2022/01/19 07:54:13;;;;;;;15.40;9.50;;;5.20;99.90;;;;;;5075560;28;20962;-70
2022/01/19 07:56:40;;;;;;;14.97;8.30;;;5.20;99.90;;;;;;5075942;28;20454;-70
2022/01/19 07:59:07;;;;;;;15.57;7.93;;;5.20;99.90;;;;;;5075436;28;20465;-69
2022/01/19 08:01:33;;;;;;;19.70;9.10;;;5.30;99.90;;;;;;5075809;28;20454;-70
2022/01/19 08:04:00;;;;;;;22.53;9.27;;;5.30;99.90;;;;;;5075333;28;20549;-71
2022/01/19 08:06:28;;;;;;;16.93;7.90;;;5.30;99.90;;;;;;5075174;28;20458;-70
2022/01/19 08:08:56;;;;;;;16.33;7.63;;;5.30;99.90;;;;;;5075625;28;20539;-71
2022/01/19 08:11:23;;;;;;;14.23;7.87;;;5.30;99.90;;;;;;5075021;28;20480;-71
2022/01/19 08:13:53;;;;;;;18.07;8.83;;;5.30;99.90;;;;;;5075109;28;20453;-71
2022/01/19 08:16:22;;;;;;;18.50;9.03;;;5.30;99.90;;;;;;5075379;28;20482;-70
2022/01/19 08:18:49;;;;;;;16.30;7.83;;;5.30;99.90;;;;;;5074740;28;20466;-70
2022/01/19 08:21:16;;;;;;;15.23;8.93;;;5.30;99.90;;;;;;5074876;28;20454;-72
2022/01/19 08:23:43;;;;;;;17.13;8.60;;;5.30;99.90;;;;;;5075158;28;20725;-70
2022/01/19 08:26:13;;;;;;;14.60;9.00;;;5.30;99.90;;;;;;5074968;28;20454;-70
2022/01/19 08:28:40;;;;;;;14.93;7.60;;;5.30;99.90;;;;;;5075403;28;20775;-70
2022/01/19 08:31:07;;;;;;;17.17;8.50;;;5.20;99.90;;;;;;5075264;28;20462;-70
2022/01/19 08:33:38;;;;;;;12.70;8.03;;;5.20;99.90;;;;;;5075187;28;20927;-70
2022/01/19 08:36:05;;;;;;;16.27;7.93;;;5.20;99.90;;;;;;5074789;28;20473;-71
2022/01/19 08:38:32;;;;;;;14.27;7.47;;;5.10;99.90;;;;;;5075268;28;20550;-71
2022/01/19 08:40:59;;;;;;;14.00;7.30;;;5.10;99.90;;;;;;5074866;28;20454;-71
2022/01/19 08:43:27;;;;;;;11.20;6.57;;;5.10;99.90;;;;;;5075179;28;20476;-70
2022/01/19 08:45:56;;;;;;;14.07;7.40;;;5.10;99.90;;;;;;5074714;28;20499;-69
2022/01/19 08:48:23;;;;;;;9.00;6.43;;;5.10;99.90;;;;;;5077072;28;20493;-71
2022/01/19 08:50:50;;;;;;;10.37;6.87;;;5.10;99.90;;;;;;5079001;28;20911;-71
2022/01/19 08:53:19;;;;;;;13.53;7.57;;;5.00;99.90;;;;;;5079253;28;20458;-71
2022/01/19 08:55:46;;;;;;;10.27;7.40;;;5.00;99.90;;;;;;5079254;28;20527;-71
2022/01/19 08:58:13;;;;;;;15.40;7.40;;;5.00;99.90;;;;;;5079953;28;20458;-71
2022/01/19 09:00:43;;;;;;;11.47;6.93;;;5.00;99.90;;;;;;5079622;28;20816;-70
2022/01/19 09:03:10;;;;;;;10.10;6.80;;;5.00;99.90;;;;;;5079686;28;20454;-71
2022/01/19 09:05:37;;;;;;;14.73;6.90;;;5.10;99.90;;;;;;5081149;28;20450;-71
2022/01/19 09:08:04;;;;;;;9.50;6.97;;;5.10;99.90;;;;;;5078467;28;20458;-70
2022/01/19 09:10:31;;;;;;;12.73;6.50;;;5.10;99.90;;;;;;5079031;28;20454;-70
2022/01/19 09:12:58;;;;;;;10.57;6.97;;;5.10;99.90;;;;;;5078793;28;20544;-69
2022/01/19 09:15:25;;;;;;;11.23;7.33;;;5.10;99.90;;;;;;5078303;28;20793;-70
2022/01/19 09:17:56;;;;;;;11.50;7.47;;;5.00;99.90;;;;;;5078062;28;20532;-69
2022/01/19 09:20:23;;;;;;;12.13;7.17;;;5.10;99.90;;;;;;5077979;28;20520;-71
2022/01/19 09:22:51;;;;;;;13.33;7.67;;;5.10;99.90;;;;;;5078307;28;20454;-71
2022/01/19 09:25:23;;;;;;;14.13;8.53;;;5.10;99.90;;;;;;5078861;28;20879;-70
2022/01/19 09:27:50;;;;;;;11.43;8.33;;;5.10;99.90;;;;;;5078596;28;20817;-70
2022/01/19 09:30:21;;;;;;;15.00;8.63;;;5.10;99.90;;;;;;5078900;28;20922;-72
2022/01/19 09:32:56;;;;;;;10.80;8.03;;;5.10;99.90;;;;;;5078774;28;20489;-70
2022/01/19 09:35:26;;;;;;;10.57;8.00;;;5.10;99.90;;;;;;5079263;28;20480;-72
2022/01/19 09:37:53;;;;;;;13.20;8.17;;;5.00;99.90;;;;;;5079239;28;20450;-71
2022/01/19 09:40:20;;;;;;;14.33;8.43;;;5.00;99.90;;;;;;5078760;28;20469;-69
2022/01/19 09:42:50;;;;;;;17.33;9.60;;;5.10;99.90;;;;;;5078938;28;20586;-69
2022/01/19 09:45:17;;;;;;;14.70;9.23;;;5.10;99.90;;;;;;5078357;28;20458;-71
2022/01/19 09:47:44;;;;;;;25.20;9.60;;;5.10;99.90;;;;;;5078651;28;20794;-71
2022/01/19 09:50:11;;;;;;;11.63;8.73;;;5.10;99.90;;;;;;5080882;28;20537;-70
2022/01/19 09:52:40;;;;;;;12.73;8.60;;;5.20;99.90;;;;;;5083917;28;20486;-71
2022/01/19 09:55:08;;;;;;;12.73;8.70;;;5.30;99.90;;;;;;5084365;28;20603;-70
2022/01/19 09:57:35;;;;;;;12.80;9.00;;;5.30;99.90;;;;;;5082672;28;20497;-71
2022/01/19 10:00:02;;;;;;;12.83;9.37;;;5.30;99.90;;;;;;5081853;28;20461;-69
2022/01/19 10:02:29;;;;;;;13.97;8.80;;;5.30;99.90;;;;;;5082052;28;20469;-69
2022/01/19 10:04:56;;;;;;;17.47;8.50;;;5.30;99.90;;;;;;5081132;28;20484;-71
2022/01/19 10:07:24;;;;;;;12.20;8.27;;;5.30;99.90;;;;;;5079976;28;20465;-70
2022/01/19 10:10:01;;;;;;;11.13;8.83;;;5.30;99.90;;;;;;5078053;28;20450;-69
2022/01/19 10:18:16;;;;;;;14.70;8.03;;;5.40;99.90;;;;;;5077547;28;20430;-70
2022/01/19 10:20:45;;;;;;;11.10;8.57;;;5.40;99.90;;;;;;5076975;28;20450;-71
2022/01/19 10:23:36;;;;;;;13.30;9.37;;;5.50;99.90;;;;;;5077344;28;20519;-70
2022/01/19 10:26:05;;;;;;;10.67;8.93;;;5.50;99.90;;;;;;5076711;28;20450;-71
2022/01/19 10:28:32;;;;;;;15.80;9.00;;;5.60;99.90;;;;;;5076778;28;20537;-70
2022/01/19 10:31:01;;;;;;;13.53;9.30;;;5.70;99.90;;;;;;5076742;28;20458;-70
2022/01/19 10:33:28;;;;;;;15.63;10.20;;;5.80;99.90;;;;;;5076956;28;20465;-70
2022/01/19 10:35:57;;;;;;;12.83;10.30;;;5.90;99.90;;;;;;5076716;28;20475;-71
2022/01/19 10:38:27;;;;;;;14.37;10.43;;;6.00;99.90;;;;;;5076808;28;20458;-70
2022/01/19 10:41:08;;;;;;;14.10;10.53;;;6.00;99.90;;;;;;5077436;28;20771;-70
2022/01/19 10:43:38;;;;;;;12.03;9.93;;;6.10;99.90;;;;;;5077567;28;20452;-70
2022/01/19 10:46:29;;;;;;;13.13;10.57;;;6.10;99.90;;;;;;5078113;28;20556;-70
2022/01/19 10:49:02;;;;;;;19.83;11.30;;;6.00;99.90;;;;;;5082430;28;20573;-71
2022/01/19 10:51:34;;;;;;;15.33;11.83;;;5.90;99.90;;;;;;5079591;28;20454;-71
2022/01/19 10:54:11;;;;;;;18.47;12.03;;;5.80;99.90;;;;;;5078073;28;20501;-70
2022/01/19 10:56:42;;;;;;;15.60;13.20;;;5.80;99.90;;;;;;5077957;28;20466;-70
2022/01/19 10:59:11;;;;;;;16.83;13.00;;;5.80;99.90;;;;;;5078577;28;20438;-70
2022/01/19 11:01:43;;;;;;;15.70;12.70;;;5.70;99.90;;;;;;5079061;28;20469;-69
2022/01/19 11:04:28;;;;;;;14.83;11.80;;;5.60;99.90;;;;;;5078754;28;20439;-70
2022/01/19 11:06:59;;;;;;;17.33;13.17;;;5.70;99.90;;;;;;5075617;28;20469;-71
2022/01/19 11:09:28;;;;;;;17.23;13.50;;;5.80;99.90;;;;;;5078428;28;20871;-72
2022/01/19 11:11:59;;;;;;;16.37;12.70;;;5.80;99.90;;;;;;5076936;28;20481;-71
2022/01/19 11:14:29;;;;;;;18.73;13.43;;;5.80;99.90;;;;;;5076643;28;20453;-70
2022/01/19 11:16:56;;;;;;;16.77;13.63;;;5.70;99.90;;;;;;5076484;28;20488;-70
2022/01/19 11:19:26;;;;;;;17.63;13.70;;;5.70;99.90;;;;;;5075452;28;20485;-70
2022/01/19 11:22:12;;;;;;;18.20;14.43;;;5.60;99.90;;;;;;5076033;28;20458;-69
2022/01/19 11:24:51;;;;;;;19.80;14.93;;;5.60;99.90;;;;;;5075972;28;20446;-70
2022/01/19 11:27:20;;;;;;;17.30;13.87;;;5.50;99.90;;;;;;5076729;28;20513;-71
2022/01/19 11:30:15;;;;;;;19.00;13.83;;;5.40;99.90;;;;;;5077965;28;20927;-71
2022/01/19 11:32:44;;;;;;;18.87;15.00;;;5.30;99.90;;;;;;5080272;28;20434;-71
2022/01/19 11:35:33;;;;;;;17.50;14.30;;;5.20;99.90;;;;;;5079868;28;20493;-72
2022/01/19 11:37:59;;;;;;;22.93;14.60;;;4.90;99.90;;;;;;5078399;28;20442;-71
2022/01/19 11:40:36;;;;;;;21.37;16.60;;;4.70;99.90;;;;;;5078148;28;20545;-71
2022/01/19 11:43:26;;;;;;;18.10;14.30;;;4.60;99.90;;;;;;5077714;28;20470;-70
2022/01/19 11:45:54;;;;;;;22.80;17.00;;;4.80;99.90;;;;;;5079303;28;20462;-71
2022/01/19 11:48:24;;;;;;;22.23;17.20;;;4.90;99.90;;;;;;5078474;28;20485;-70
2022/01/19 11:50:52;;;;;;;25.50;19.17;;;4.80;99.90;;;;;;5079602;28;20451;-71
2022/01/19 11:53:19;;;;;;;24.00;17.73;;;4.70;99.90;;;;;;5079329;28;20821;-71
2022/01/19 11:56:03;;;;;;;22.80;16.90;;;4.70;99.90;;;;;;5079184;28;20865;-71
2022/01/19 11:58:32;;;;;;;24.00;18.60;;;4.80;99.90;;;;;;5079335;28;20501;-72
2022/01/19 12:00:59;;;;;;;22.70;17.03;;;4.80;99.90;;;;;;5081335;28;20454;-70
2022/01/19 12:03:33;;;;;;;22.33;17.07;;;4.80;99.90;;;;;;5079490;28;20454;-71
2022/01/19 12:06:00;;;;;;;23.47;19.00;;;4.80;99.90;;;;;;5079773;28;20442;-71
2022/01/19 12:08:38;;;;;;;23.93;17.70;;;4.80;99.90;;;;;;5078948;28;20455;-69
2022/01/19 12:11:17;;;;;;;21.80;15.70;;;4.60;99.90;;;;;;5077727;28;20447;-71
2022/01/19 12:19:20;;;;;;;19.50;15.60;;;4.20;99.90;;;;;;5069998;28;20890;-70
2022/01/19 12:21:50;;;;;;;24.33;15.80;;;4.10;99.90;;;;;;5078088;28;20500;-70
2022/01/19 12:24:25;;;;;;;20.13;15.77;;;4.00;99.90;;;;;;5077112;28;20434;-71
2022/01/19 12:26:55;;;;;;;19.97;15.70;;;4.00;99.90;;;;;;5078424;28;20519;-69
2022/01/19 12:29:52;;;;;;;20.43;14.70;;;4.00;99.90;;;;;;5078194;28;20899;-70
2022/01/19 12:32:42;;;;;;;18.90;14.43;;;4.00;99.90;;;;;;5078677;28;20454;-71
2022/01/19 12:35:13;;;;;;;19.83;14.77;;;4.00;99.90;;;;;;5076501;28;20820;-71
2022/01/19 12:37:43;;;;;;;19.70;15.50;;;3.90;99.90;;;;;;5076021;28;20466;-70
2022/01/19 12:40:29;;;;;;;18.07;14.60;;;3.80;99.90;;;;;;5076329;28;20458;-70
2022/01/19 12:42:58;;;;;;;19.50;15.17;;;3.80;99.90;;;;;;5075516;28;20875;-70
2022/01/19 12:45:28;;;;;;;22.00;16.10;;;3.80;99.90;;;;;;5075479;28;20454;-71
2022/01/19 12:47:55;;;;;;;21.10;16.33;;;3.80;99.90;;;;;;5075736;28;20482;-71
2022/01/19 12:50:39;;;;;;;19.10;15.37;;;3.80;99.90;;;;;;5076051;28;20527;-71
2022/01/19 12:53:12;;;;;;;22.87;15.53;;;3.80;99.90;;;;;;5073692;28;20583;-72
2022/01/19 12:55:40;;;;;;;17.23;13.07;;;3.80;99.90;;;;;;5075245;28;20883;-73
2022/01/19 12:58:13;;;;;;;22.33;14.70;;;3.80;99.90;;;;;;5075076;28;20557;-71
2022/01/19 13:00:42;;;;;;;20.60;15.97;;;3.70;99.90;;;;;;5075635;28;20458;-72
2022/01/19 13:03:16;;;;;;;22.53;16.33;;;3.70;99.90;;;;;;5075460;28;20784;-71
2022/01/19 13:05:48;;;;;;;19.60;15.63;;;3.70;99.90;;;;;;5075725;28;20491;-71
2022/01/19 13:08:28;;;;;;;18.80;15.10;;;3.80;99.90;;;;;;5075504;28;20465;-71
2022/01/19 13:11:04;;;;;;;22.73;16.10;;;3.80;99.90;;;;;;5074759;28;20442;-71
2022/01/19 13:13:31;;;;;;;18.60;15.57;;;3.80;99.90;;;;;;5075940;28;20469;-70
2022/01/19 13:16:01;;;;;;;22.57;17.20;;;3.70;99.90;;;;;;5075714;28;20548;-71
2022/01/19 13:18:34;;;;;;;25.57;18.20;;;3.70;99.90;;;;;;5075806;28;20465;-71
2022/01/19 13:21:06;;;;;;;23.50;18.90;;;3.80;99.90;;;;;;5076447;28;20465;-71
2022/01/19 13:23:35;;;;;;;23.20;17.57;;;3.80;99.90;;;;;;5075727;28;20458;-71
2022/01/19 13:26:05;;;;;;;24.63;18.60;;;3.90;99.90;;;;;;5074988;28;20464;-70
2022/01/19 13:28:34;;;;;;;23.43;18.23;;;3.80;99.90;;;;;;5075274;28;20511;-70
2022/01/19 13:31:13;;;;;;;25.33;19.33;;;3.80;99.90;;;;;;5074913;28;20947;-71
2022/01/19 13:33:41;;;;;;;24.20;18.60;;;3.80;99.90;;;;;;5076070;28;20454;-71
2022/01/19 13:36:08;;;;;;;23.60;18.40;;;3.80;99.90;;;;;;5079168;28;20885;-71
2022/01/19 13:38:37;;;;;;;21.73;16.90;;;3.80;99.90;;;;;;5079363;28;20540;-70
2022/01/19 13:41:05;;;;;;;21.13;16.87;;;3.90;99.90;;;;;;5079425;28;20454;-69
2022/01/19 13:43:34;;;;;;;17.40;14.90;;;3.90;99.90;;;;;;5079205;28;20466;-71
2022/01/19 13:46:12;;;;;;;18.70;14.50;;;3.90;99.90;;;;;;5079703;28;20466;-71
2022/01/19 13:48:44;;;;;;;17.20;14.50;;;3.90;99.90;;;;;;5080866;28;20531;-71
2022/01/19 13:51:14;;;;;;;14.90;13.23;;;4.00;99.90;;;;;;5081175;28;20466;-71
2022/01/19 13:53:43;;;;;;;16.97;13.60;;;3.90;99.90;;;;;;5080903;28;20442;-70
2022/01/19 13:56:11;;;;;;;15.17;13.57;;;4.00;99.90;;;;;;5079839;28;20486;-70
2022/01/19 13:58:42;;;;;;;14.90;13.27;;;4.00;99.90;;;;;;5080321;28;20468;-71
2022/01/19 14:01:13;;;;;;;16.53;14.00;;;4.00;99.90;;;;;;5080408;28;20516;-71
2022/01/19 14:03:50;;;;;;;14.07;12.00;;;4.00;99.90;;;;;;5083238;28;20450;-71
2022/01/19 14:06:23;;;;;;;16.50;13.10;;;4.00;99.90;;;;;;5084352;28;20450;-70
2022/01/19 14:08:50;;;;;;;14.93;12.63;;;4.00;99.90;;;;;;5083620;28;20453;-70